Time;durP1;ratioP1;P1;durP2;ratioP2;P2;SDS_P1;SDS_P2;PMS_P1;PMS_P2;Temp;Humidity;BMP_temperature;BMP_pressure;BME280_temperature;BME280_humidity;BME280_pressure;Samples;Min_cycle;Max_cycle;Signal;HPM_P1;HPM_P2
2022/02/28 00:00:39;;;;;;;22.80;9.32;;;0.40;99.90;;;;;;5097683;28;20452;-70
2022/02/28 00:03:05;;;;;;;22.38;10.23;;;0.60;99.90;;;;;;5080510;28;20115;-72
2022/02/28 00:05:31;;;;;;;17.80;9.98;;;0.70;99.90;;;;;;5115643;28;20051;-71
2022/02/28 00:07:56;;;;;;;20.25;10.05;;;0.80;99.90;;;;;;5080460;28;20024;-70
2022/02/28 00:10:22;;;;;;;16.00;9.43;;;0.90;99.90;;;;;;5115561;28;20524;-70
2022/02/28 00:12:48;;;;;;;19.52;9.73;;;0.70;99.90;;;;;;5097377;28;20027;-70
2022/02/28 00:15:16;;;;;;;20.88;10.90;;;0.70;99.90;;;;;;5080258;28;20393;-71
2022/02/28 00:17:41;;;;;;;19.15;9.80;;;0.70;99.90;;;;;;5080132;28;20028;-71
2022/02/28 00:20:10;;;;;;;19.58;9.50;;;0.60;99.90;;;;;;5097119;28;20084;-71
2022/02/28 00:22:37;;;;;;;18.20;9.00;;;0.60;99.90;;;;;;5097380;28;20023;-71
2022/02/28 00:25:05;;;;;;;23.80;10.35;;;0.70;99.90;;;;;;5096961;28;20016;-71
2022/02/28 00:27:30;;;;;;;20.20;9.75;;;0.80;99.90;;;;;;5115267;28;20384;-70
2022/02/28 00:29:56;;;;;;;19.30;9.95;;;0.70;99.90;;;;;;5115231;28;20023;-71
2022/02/28 00:32:23;;;;;;;15.63;9.32;;;0.60;99.90;;;;;;5096946;28;20031;-72
2022/02/28 00:34:49;;;;;;;17.95;8.80;;;0.50;99.90;;;;;;5115058;28;20469;-70
2022/02/28 00:37:15;;;;;;;19.20;9.90;;;0.50;99.90;;;;;;5114971;28;20038;-71
2022/02/28 00:39:41;;;;;;;17.95;8.95;;;0.40;99.90;;;;;;5096584;28;20024;-71
2022/02/28 00:42:07;;;;;;;16.42;8.73;;;0.30;99.90;;;;;;5114159;28;20069;-70
2022/02/28 00:44:32;;;;;;;17.17;9.23;;;0.10;99.90;;;;;;5096679;28;20032;-70
2022/02/28 00:46:58;;;;;;;25.70;9.75;;;0.10;99.90;;;;;;5096546;28;20030;-71
2022/02/28 00:49:24;;;;;;;23.20;10.15;;;0.00;99.90;;;;;;5096669;28;20028;-71
2022/02/28 00:51:49;;;;;;;17.35;9.27;;;0.10;99.90;;;;;;5096422;28;20068;-70
2022/02/28 00:54:15;;;;;;;18.38;9.60;;;0.10;99.90;;;;;;5096445;28;20370;-70
2022/02/28 00:56:40;;;;;;;23.10;10.23;;;-0.10;99.90;;;;;;5096375;28;20035;-70
2022/02/28 00:59:06;;;;;;;18.92;10.00;;;-0.10;99.90;;;;;;5114442;28;20051;-71
2022/02/28 01:01:33;;;;;;;19.77;10.38;;;-0.20;99.90;;;;;;5114492;28;20028;-70
2022/02/28 01:03:58;;;;;;;19.00;9.40;;;-0.20;99.90;;;;;;5096333;28;20055;-71
2022/02/28 01:06:24;;;;;;;19.60;9.77;;;-0.20;99.90;;;;;;5114476;28;20085;-70
2022/02/28 01:08:50;;;;;;;20.40;9.52;;;-0.20;99.90;;;;;;5096296;28;20489;-71
2022/02/28 01:11:15;;;;;;;21.27;9.90;;;-0.20;99.90;;;;;;5114354;28;20031;-70
2022/02/28 01:13:41;;;;;;;18.55;9.05;;;-0.30;99.90;;;;;;5096081;28;20110;-71
2022/02/28 01:16:06;;;;;;;17.40;9.77;;;-0.30;99.90;;;;;;5095998;28;20396;-71
2022/02/28 01:18:32;;;;;;;21.35;10.23;;;-0.30;99.90;;;;;;5095922;28;20051;-71
2022/02/28 01:20:57;;;;;;;17.45;9.75;;;-0.30;99.90;;;;;;5114294;28;20023;-71
2022/02/28 01:23:23;;;;;;;20.10;10.65;;;-0.40;99.90;;;;;;5114247;28;20439;-70
2022/02/28 01:25:49;;;;;;;21.60;10.85;;;-0.40;99.90;;;;;;5095880;28;20389;-71
2022/02/28 01:28:14;;;;;;;18.55;10.27;;;-0.30;99.90;;;;;;5095783;28;20398;-71
2022/02/28 01:30:40;;;;;;;19.13;9.73;;;-0.40;99.90;;;;;;5095794;28;20023;-70
2022/02/28 01:33:06;;;;;;;19.30;9.80;;;-0.40;99.90;;;;;;5095810;28;20397;-71
2022/02/28 01:35:32;;;;;;;21.95;10.43;;;-0.30;99.90;;;;;;5095732;28;20031;-71
2022/02/28 01:37:58;;;;;;;20.63;10.90;;;-0.30;99.90;;;;;;5095593;28;20028;-70
2022/02/28 01:40:24;;;;;;;21.38;10.65;;;-0.30;99.90;;;;;;5113985;28;20020;-70
2022/02/28 01:42:50;;;;;;;18.73;10.68;;;-0.20;99.90;;;;;;5113804;28;20028;-71
2022/02/28 01:45:21;;;;;;;21.75;10.07;;;0.00;99.90;;;;;;5112648;28;20381;-71
2022/02/28 01:47:49;;;;;;;20.02;10.40;;;-0.10;99.90;;;;;;5095573;28;20036;-71
2022/02/28 01:50:14;;;;;;;20.65;9.55;;;-0.20;99.90;;;;;;5095584;28;20016;-71
2022/02/28 01:52:41;;;;;;;20.55;9.85;;;-0.40;99.90;;;;;;5078704;28;20022;-70
2022/02/28 01:55:09;;;;;;;20.85;10.80;;;-0.50;99.90;;;;;;5095481;28;20393;-71
2022/02/28 01:57:34;;;;;;;22.02;10.85;;;-0.60;99.90;;;;;;5095323;28;20030;-70
2022/02/28 02:00:01;;;;;;;22.10;10.77;;;-0.60;99.90;;;;;;5095280;28;20115;-70
2022/02/28 02:02:26;;;;;;;20.83;10.30;;;-0.70;99.90;;;;;;5112531;28;20015;-70
2022/02/28 02:04:52;;;;;;;19.52;10.40;;;-0.80;99.90;;;;;;5095472;28;20046;-70
2022/02/28 02:07:17;;;;;;;22.20;10.70;;;-0.90;99.90;;;;;;5112405;28;20081;-71
2022/02/28 02:09:43;;;;;;;21.70;11.27;;;-1.00;99.90;;;;;;5112410;28;20106;-70
2022/02/28 02:12:09;;;;;;;19.52;9.90;;;-1.00;99.90;;;;;;5112393;28;20066;-70
2022/02/28 02:14:36;;;;;;;20.40;10.20;;;-1.10;99.90;;;;;;5113468;28;20071;-70
2022/02/28 02:17:02;;;;;;;18.95;10.57;;;-1.20;99.90;;;;;;5112428;28;20147;-71
2022/02/28 02:19:28;;;;;;;19.88;10.40;;;-1.20;99.90;;;;;;5112460;28;20019;-71
2022/02/28 02:21:53;;;;;;;21.67;11.55;;;-1.20;99.90;;;;;;5095709;28;20019;-71
2022/02/28 02:24:19;;;;;;;23.05;10.77;;;-1.30;99.90;;;;;;5112230;28;20027;-71
2022/02/28 02:26:45;;;;;;;22.85;10.60;;;-1.30;99.90;;;;;;5078348;28;20028;-70
2022/02/28 02:29:10;;;;;;;23.10;11.25;;;-1.30;99.90;;;;;;5112232;28;20034;-71
2022/02/28 02:31:36;;;;;;;16.98;9.73;;;-1.40;99.90;;;;;;5095223;28;20110;-71
2022/02/28 02:34:01;;;;;;;20.25;10.38;;;-1.40;99.90;;;;;;5095117;28;20035;-70
2022/02/28 02:36:28;;;;;;;22.85;11.02;;;-1.50;99.90;;;;;;5113450;28;20064;-70
2022/02/28 02:38:54;;;;;;;21.40;11.00;;;-1.50;99.90;;;;;;5113204;28;20465;-71
2022/02/28 02:41:20;;;;;;;24.20;11.23;;;-1.50;99.90;;;;;;5113262;28;20027;-70
2022/02/28 02:43:46;;;;;;;24.85;11.82;;;-1.50;99.90;;;;;;5113275;28;20046;-71
2022/02/28 02:46:11;;;;;;;24.90;12.10;;;-1.50;99.90;;;;;;5094984;28;20413;-71
2022/02/28 02:48:37;;;;;;;24.42;11.30;;;-1.60;99.90;;;;;;5113246;28;20020;-71
2022/02/28 02:51:02;;;;;;;23.13;11.65;;;-1.60;99.90;;;;;;5112028;28;20023;-69
2022/02/28 02:53:28;;;;;;;25.77;11.40;;;-1.60;99.90;;;;;;5113233;28;20098;-70
2022/02/28 02:55:54;;;;;;;21.23;11.38;;;-1.70;99.90;;;;;;5113134;28;20066;-70
2022/02/28 02:58:20;;;;;;;23.33;12.05;;;-1.60;99.90;;;;;;5112777;28;20097;-70
2022/02/28 03:00:49;;;;;;;21.98;11.75;;;-1.60;99.90;;;;;;5113104;28;20034;-70
2022/02/28 03:03:19;;;;;;;22.80;12.18;;;-1.70;99.90;;;;;;5113020;28;20015;-70
2022/02/28 03:05:46;;;;;;;31.25;12.65;;;-1.70;99.90;;;;;;5095647;28;20020;-70
2022/02/28 03:08:12;;;;;;;27.30;12.70;;;-1.70;99.90;;;;;;5115634;28;20023;-70
2022/02/28 03:10:38;;;;;;;24.42;12.30;;;-1.70;99.90;;;;;;5098519;28;20032;-70
2022/02/28 03:13:04;;;;;;;23.80;12.02;;;-1.80;99.90;;;;;;5116724;28;20374;-70
2022/02/28 03:15:29;;;;;;;22.90;11.48;;;-1.70;99.90;;;;;;5116675;28;20024;-71
2022/02/28 03:17:55;;;;;;;25.30;12.30;;;-1.70;99.90;;;;;;5098352;28;20393;-71
2022/02/28 03:20:21;;;;;;;22.00;11.48;;;-1.70;99.90;;;;;;5098420;28;20386;-69
2022/02/28 03:22:46;;;;;;;22.25;11.90;;;-1.70;99.90;;;;;;5116477;28;20103;-70
2022/02/28 03:25:12;;;;;;;21.77;11.43;;;-1.70;99.90;;;;;;5098195;28;20115;-70
2022/02/28 03:27:37;;;;;;;27.65;12.10;;;-1.70;99.90;;;;;;5098223;28;20487;-69
2022/02/28 03:30:05;;;;;;;29.45;12.93;;;-1.70;99.90;;;;;;5116383;28;20027;-69
2022/02/28 03:32:31;;;;;;;26.55;11.93;;;-1.70;99.90;;;;;;5115173;28;20039;-70
2022/02/28 03:34:56;;;;;;;26.02;12.60;;;-1.70;99.90;;;;;;5115091;28;20401;-69
2022/02/28 03:37:22;;;;;;;29.92;13.50;;;-1.80;99.90;;;;;;5098009;28;20023;-69
2022/02/28 03:39:47;;;;;;;24.83;12.25;;;-1.80;99.90;;;;;;5116084;28;20072;-69
2022/02/28 03:42:13;;;;;;;27.10;13.40;;;-1.80;99.90;;;;;;5114909;28;20069;-69
2022/02/28 03:44:39;;;;;;;29.95;12.88;;;-1.90;99.90;;;;;;5097782;28;20027;-69
2022/02/28 03:47:04;;;;;;;25.58;13.23;;;-1.90;99.90;;;;;;5080964;28;20077;-69
2022/02/28 03:49:30;;;;;;;27.55;13.98;;;-1.90;99.90;;;;;;5114910;28;20027;-70
2022/02/28 03:51:57;;;;;;;28.65;13.45;;;-1.90;99.90;;;;;;5114802;28;20065;-69
2022/02/28 03:54:22;;;;;;;26.95;13.50;;;-1.90;99.90;;;;;;5097600;28;20092;-69
2022/02/28 03:56:48;;;;;;;27.35;12.93;;;-1.90;99.90;;;;;;5097497;28;20118;-69
2022/02/28 03:59:15;;;;;;;28.35;13.38;;;-2.00;99.90;;;;;;5097272;28;20100;-69
2022/02/28 04:01:41;;;;;;;25.85;13.90;;;-2.10;99.90;;;;;;5115778;28;20024;-69
2022/02/28 04:04:08;;;;;;;24.23;12.52;;;-2.00;99.90;;;;;;5115596;28;20016;-69
2022/02/28 04:06:34;;;;;;;24.90;13.00;;;-2.10;99.90;;;;;;5097366;28;20036;-69
2022/02/28 04:09:00;;;;;;;26.00;12.52;;;-2.10;99.90;;;;;;5115665;28;20023;-69
2022/02/28 04:11:26;;;;;;;25.90;12.98;;;-2.20;99.90;;;;;;5114426;28;20059;-69
2022/02/28 04:13:51;;;;;;;29.30;13.18;;;-2.20;99.90;;;;;;5114319;28;20024;-69
2022/02/28 04:16:18;;;;;;;26.40;13.40;;;-2.20;99.90;;;;;;5115427;28;20077;-69
2022/02/28 04:18:43;;;;;;;31.00;14.57;;;-2.20;99.90;;;;;;5115357;28;20159;-69
2022/02/28 04:21:09;;;;;;;30.35;14.20;;;-2.20;99.90;;;;;;5114226;28;20501;-69
2022/02/28 04:23:34;;;;;;;32.67;14.55;;;-2.20;99.90;;;;;;5114206;28;20020;-69
2022/02/28 04:26:00;;;;;;;29.88;15.27;;;-2.20;99.90;;;;;;5114103;28;20019;-69
2022/02/28 04:28:26;;;;;;;28.88;13.73;;;-2.20;99.90;;;;;;5096868;28;20500;-70
2022/02/28 04:30:52;;;;;;;30.88;13.88;;;-2.20;99.90;;;;;;5097000;28;20027;-69
2022/02/28 04:33:17;;;;;;;30.80;15.25;;;-2.20;99.90;;;;;;5115121;28;20533;-69
2022/02/28 04:35:43;;;;;;;34.85;15.65;;;-2.30;99.90;;;;;;5096837;28;20027;-70
2022/02/28 04:38:09;;;;;;;33.97;15.35;;;-2.00;99.90;;;;;;5096617;28;20028;-70
2022/02/28 04:40:35;;;;;;;34.45;15.25;;;-2.10;99.90;;;;;;5096692;28;20501;-69
2022/02/28 04:43:01;;;;;;;27.13;14.10;;;-2.10;99.90;;;;;;5096671;28;20028;-71
2022/02/28 04:45:27;;;;;;;29.77;15.55;;;-2.10;99.90;;;;;;5114954;28;20106;-71
2022/02/28 04:47:53;;;;;;;30.15;13.77;;;-2.10;99.90;;;;;;5113636;28;20047;-70
2022/02/28 04:50:19;;;;;;;37.08;15.40;;;-2.20;99.90;;;;;;5114745;28;20016;-70
2022/02/28 04:52:44;;;;;;;28.15;14.68;;;-2.30;99.90;;;;;;5113526;28;20028;-69
2022/02/28 04:55:10;;;;;;;29.77;14.25;;;-2.30;99.90;;;;;;5114664;28;20448;-70
2022/02/28 04:57:38;;;;;;;30.52;14.20;;;-2.30;99.90;;;;;;5114436;28;20508;-69
2022/02/28 05:00:04;;;;;;;32.22;15.68;;;-2.30;99.90;;;;;;5113339;28;20529;-70
2022/02/28 05:02:29;;;;;;;29.83;14.52;;;-2.30;99.90;;;;;;5096266;28;20024;-70
2022/02/28 05:04:55;;;;;;;30.05;14.93;;;-2.40;99.90;;;;;;5096295;28;20077;-70
2022/02/28 05:07:20;;;;;;;35.30;15.98;;;-2.40;99.90;;;;;;5114459;28;20469;-71
2022/02/28 05:09:46;;;;;;;30.20;15.40;;;-2.40;99.90;;;;;;5096195;28;20024;-70
2022/02/28 05:12:12;;;;;;;28.67;15.38;;;-2.40;99.90;;;;;;5096127;28;20020;-71
2022/02/28 05:14:37;;;;;;;28.98;14.55;;;-2.30;99.90;;;;;;5096152;28;20038;-70
2022/02/28 05:17:03;;;;;;;31.80;15.73;;;-2.30;99.90;;;;;;5114311;28;20032;-70
2022/02/28 05:19:29;;;;;;;34.95;16.15;;;-2.40;99.90;;;;;;5114213;28;20073;-70
2022/02/28 05:21:54;;;;;;;37.47;16.83;;;-2.40;99.90;;;;;;5114219;28;20024;-70
2022/02/28 05:24:20;;;;;;;69.88;25.67;;;-2.30;99.90;;;;;;5114110;28;20015;-70
2022/02/28 05:26:46;;;;;;;49.30;19.67;;;-2.30;99.90;;;;;;5114107;28;20027;-70
2022/02/28 05:29:11;;;;;;;38.40;18.40;;;-2.40;99.90;;;;;;5095493;28;20028;-71
2022/02/28 05:31:37;;;;;;;40.90;19.95;;;-2.30;99.90;;;;;;5114052;28;20054;-70
2022/02/28 05:34:02;;;;;;;37.80;17.25;;;-2.30;99.90;;;;;;5112902;28;20028;-71
2022/02/28 05:36:28;;;;;;;38.70;15.70;;;-2.30;99.90;;;;;;5095720;28;20072;-70
2022/02/28 05:38:53;;;;;;;36.13;16.25;;;-2.30;99.90;;;;;;5112653;28;20034;-70
2022/02/28 05:41:19;;;;;;;33.78;16.25;;;-2.40;99.90;;;;;;5112705;28;20030;-70
2022/02/28 05:43:45;;;;;;;33.47;15.77;;;-2.40;99.90;;;;;;5095698;28;20016;-70
2022/02/28 05:46:11;;;;;;;32.33;15.70;;;-2.40;99.90;;;;;;5095546;28;20020;-70
2022/02/28 05:48:37;;;;;;;32.15;15.63;;;-2.50;99.90;;;;;;5095518;28;20039;-71
2022/02/28 05:51:02;;;;;;;32.55;16.52;;;-2.50;99.90;;;;;;5095606;28;20465;-70
2022/02/28 05:53:28;;;;;;;30.17;14.73;;;-2.50;99.90;;;;;;5095690;28;20416;-70
2022/02/28 05:55:53;;;;;;;31.38;15.50;;;-2.50;99.90;;;;;;5112512;28;20024;-70
2022/02/28 05:58:19;;;;;;;33.35;16.65;;;-2.50;99.90;;;;;;5113404;28;20039;-70
2022/02/28 06:00:45;;;;;;;28.27;14.13;;;-2.50;99.90;;;;;;5113631;28;20023;-70
2022/02/28 06:03:10;;;;;;;38.25;15.80;;;-2.50;99.90;;;;;;5112309;28;20046;-71
2022/02/28 06:05:36;;;;;;;29.92;14.77;;;-2.40;99.90;;;;;;5095385;28;20016;-70
2022/02/28 06:08:01;;;;;;;29.98;15.63;;;-2.40;99.90;;;;;;5113564;28;20366;-70
2022/02/28 06:10:27;;;;;;;33.45;15.60;;;-2.30;99.90;;;;;;5112476;28;20028;-70
2022/02/28 06:12:52;;;;;;;29.65;14.23;;;-2.30;99.90;;;;;;5112386;28;20377;-70
2022/02/28 06:15:18;;;;;;;29.13;14.48;;;-2.20;99.90;;;;;;5095296;28;20068;-70
2022/02/28 06:17:43;;;;;;;30.55;15.23;;;-2.20;99.90;;;;;;5112340;28;20030;-71
2022/02/28 06:20:10;;;;;;;29.90;15.40;;;-2.10;99.90;;;;;;5112291;28;20038;-70
2022/02/28 06:22:35;;;;;;;35.17;16.17;;;-2.10;99.90;;;;;;5095123;28;20118;-71
2022/02/28 06:25:01;;;;;;;36.67;16.33;;;-2.10;99.90;;;;;;5095233;28;20450;-71
2022/02/28 06:27:26;;;;;;;34.75;16.30;;;-2.00;99.90;;;;;;5113347;28;20016;-70
2022/02/28 06:29:52;;;;;;;38.13;16.40;;;-1.80;99.90;;;;;;5113403;28;20027;-71
2022/02/28 06:32:19;;;;;;;35.78;16.60;;;-1.70;99.90;;;;;;5095104;28;20023;-70
2022/02/28 06:34:45;;;;;;;30.48;15.52;;;-1.60;99.90;;;;;;5113359;28;20024;-70
2022/02/28 06:37:11;;;;;;;33.72;14.65;;;-1.30;99.90;;;;;;5095061;28;20039;-70
2022/02/28 06:39:37;;;;;;;29.33;15.23;;;-1.00;99.90;;;;;;5094797;28;20057;-70
2022/02/28 06:42:03;;;;;;;32.65;15.50;;;-0.60;99.90;;;;;;5116350;28;20553;-72
2022/02/28 06:44:28;;;;;;;30.20;14.05;;;-0.20;99.90;;;;;;5098924;28;20108;-70
2022/02/28 06:46:54;;;;;;;27.67;13.50;;;0.40;99.90;;;;;;5098871;28;20020;-70
2022/02/28 06:49:19;;;;;;;26.20;12.93;;;0.70;99.90;;;;;;5117089;28;20449;-70
2022/02/28 06:51:45;;;;;;;23.33;11.93;;;1.40;99.90;;;;;;5117229;28;20034;-70
2022/02/28 06:54:11;;;;;;;20.73;11.55;;;2.00;99.90;;;;;;5116995;28;20016;-71
2022/02/28 06:56:36;;;;;;;19.63;11.00;;;2.80;99.90;;;;;;5115513;28;20094;-70
2022/02/28 06:59:02;;;;;;;21.58;11.07;;;3.20;99.90;;;;;;5116692;28;20122;-70
2022/02/28 07:01:27;;;;;;;17.15;11.18;;;3.50;99.90;;;;;;5116773;28;20015;-71
2022/02/28 07:03:53;;;;;;;20.70;11.32;;;3.80;99.90;;;;;;5080888;28;20363;-71
2022/02/28 07:06:22;;;;;;;17.95;11.05;;;3.80;99.90;;;;;;5095113;28;20020;-70
2022/02/28 07:08:48;;;;;;;20.45;10.82;;;4.50;99.90;;;;;;5113437;28;20027;-71
2022/02/28 07:11:15;;;;;;;18.67;11.48;;;5.70;99.90;;;;;;5098400;28;20023;-72
2022/02/28 07:13:41;;;;;;;18.60;10.27;;;6.90;99.90;;;;;;5111823;28;20027;-71
2022/02/28 07:16:07;;;;;;;14.93;9.95;;;7.20;99.90;;;;;;5116475;28;20106;-71
2022/02/28 07:18:32;;;;;;;19.02;11.52;;;7.90;99.90;;;;;;5098372;28;20115;-71
2022/02/28 07:20:58;;;;;;;18.85;11.02;;;8.50;99.90;;;;;;5116122;28;20030;-72
2022/02/28 07:23:23;;;;;;;16.63;10.30;;;9.10;99.90;;;;;;5116398;27;20063;-71
2022/02/28 07:25:49;;;;;;;15.57;10.57;;;9.40;99.90;;;;;;5106697;28;20511;-71
2022/02/28 07:28:15;;;;;;;19.42;10.82;;;9.40;99.90;;;;;;5115113;28;20102;-71
2022/02/28 07:30:40;;;;;;;18.38;10.90;;;9.60;99.90;;;;;;5112214;28;20027;-71
2022/02/28 07:33:06;;;;;;;18.33;11.02;;;10.10;99.90;;;;;;5095947;28;20461;-71
2022/02/28 07:35:33;;;;;;;18.98;11.48;;;9.90;99.90;;;;;;5115944;28;20401;-72
2022/02/28 07:37:58;;;;;;;15.57;10.68;;;10.30;99.90;;;;;;5097934;28;20111;-72
2022/02/28 07:40:24;;;;;;;16.70;11.20;;;10.40;97.90;;;;;;5083204;28;20111;-71
2022/02/28 07:42:49;;;;;;;15.35;11.25;;;10.20;97.60;;;;;;5089561;28;20032;-72
2022/02/28 07:45:16;;;;;;;19.63;12.40;;;10.70;99.80;;;;;;5078108;28;20024;-73
2022/02/28 07:47:42;;;;;;;16.77;12.20;;;10.20;98.30;;;;;;5103359;28;20019;-72
2022/02/28 07:50:08;;;;;;;18.63;11.85;;;10.60;99.90;;;;;;5115521;28;20058;-72
2022/02/28 07:52:34;;;;;;;17.58;11.88;;;10.80;96.80;;;;;;5114181;28;20019;-73
2022/02/28 07:54:59;;;;;;;19.52;12.70;;;11.30;95.80;;;;;;5115684;28;20439;-72
2022/02/28 07:57:25;;;;;;;19.10;12.52;;;11.10;94.50;;;;;;5097359;28;20497;-71
2022/02/28 07:59:50;;;;;;;21.55;13.07;;;11.00;94.90;;;;;;5107427;28;20443;-72
2022/02/28 08:02:16;;;;;;;19.05;12.75;;;10.80;95.40;;;;;;5110896;28;20023;-72
2022/02/28 08:04:41;;;;;;;21.33;12.77;;;10.70;96.80;;;;;;5114524;28;20051;-71
2022/02/28 08:07:07;;;;;;;16.98;12.05;;;11.60;94.40;;;;;;5115299;28;20028;-72
2022/02/28 08:09:32;;;;;;;20.38;12.50;;;11.70;93.20;;;;;;5114386;28;20030;-72
2022/02/28 08:11:59;;;;;;;18.33;12.30;;;12.40;91.80;;;;;;5114813;28;20032;-73
2022/02/28 08:14:24;;;;;;;18.90;11.68;;;12.10;90.00;;;;;;5084520;28;20028;-72
2022/02/28 08:16:50;;;;;;;18.70;12.07;;;12.60;87.80;;;;;;5114111;28;20389;-72
2022/02/28 08:19:17;;;;;;;18.55;11.82;;;12.20;86.90;;;;;;5110563;28;20397;-72
2022/02/28 08:21:43;;;;;;;17.65;11.43;;;12.20;86.20;;;;;;5115038;28;20016;-72
2022/02/28 08:24:08;;;;;;;15.23;10.88;;;12.70;85.90;;;;;;5097181;28;20039;-72
2022/02/28 08:26:34;;;;;;;17.58;11.88;;;12.90;80.50;;;;;;5083704;28;20028;-73
2022/02/28 08:29:00;;;;;;;15.73;11.40;;;13.10;78.30;;;;;;5114076;28;20023;-72
2022/02/28 08:31:25;;;;;;;20.23;11.85;;;12.00;78.20;;;;;;5106613;28;20546;-73
2022/02/28 08:33:51;;;;;;;21.98;11.55;;;11.60;84.60;;;;;;5114804;28;20114;-72
2022/02/28 08:36:17;;;;;;;16.80;11.52;;;12.20;85.70;;;;;;5091723;28;20130;-72
2022/02/28 08:38:43;;;;;;;20.13;10.88;;;12.70;81.10;;;;;;5111814;28;20039;-72
2022/02/28 08:41:09;;;;;;;15.65;11.20;;;13.50;75.30;;;;;;5114655;28;20027;-73
2022/02/28 08:43:34;;;;;;;16.73;10.80;;;13.60;74.90;;;;;;5082554;28;20044;-74
2022/02/28 08:46:01;;;;;;;15.32;10.52;;;13.60;70.80;;;;;;5104342;28;20028;-73
2022/02/28 08:48:27;;;;;;;18.90;11.32;;;13.30;73.30;;;;;;5105657;28;20028;-72
2022/02/28 08:50:52;;;;;;;18.58;11.75;;;12.50;78.80;;;;;;5114432;28;20481;-72
2022/02/28 08:53:18;;;;;;;18.77;11.50;;;12.90;75.30;;;;;;5113369;28;20020;-72
2022/02/28 08:55:44;;;;;;;15.88;11.57;;;12.90;78.00;;;;;;5100374;28;20482;-73
2022/02/28 08:58:09;;;;;;;15.40;10.63;;;13.20;76.90;;;;;;5105892;28;20035;-73
2022/02/28 09:00:35;;;;;;;15.55;11.40;;;13.40;72.10;;;;;;5098335;28;20489;-73
2022/02/28 09:03:01;;;;;;;16.42;11.02;;;13.10;72.00;;;;;;5112621;28;20030;-73
2022/02/28 09:05:27;;;;;;;16.95;11.27;;;12.80;72.80;;;;;;5114041;28;20019;-73
2022/02/28 09:07:52;;;;;;;15.85;10.77;;;12.50;75.60;;;;;;5078666;28;20401;-72
2022/02/28 09:10:18;;;;;;;15.18;11.00;;;12.70;74.40;;;;;;5096232;28;20028;-72
2022/02/28 09:12:44;;;;;;;15.93;10.45;;;13.30;73.30;;;;;;5113982;28;20397;-73
2022/02/28 09:15:10;;;;;;;16.35;10.88;;;13.70;71.40;;;;;;5112790;28;20028;-74
2022/02/28 09:17:35;;;;;;;14.60;10.65;;;14.30;67.80;;;;;;5076750;28;20450;-73
2022/02/28 09:20:01;;;;;;;17.92;11.13;;;13.70;63.50;;;;;;5096799;28;20398;-72
2022/02/28 09:22:26;;;;;;;15.10;10.18;;;13.60;66.50;;;;;;5113848;28;20094;-72
2022/02/28 09:24:52;;;;;;;16.83;10.30;;;14.00;67.10;;;;;;5113670;28;20054;-73
2022/02/28 09:27:18;;;;;;;15.85;10.60;;;14.20;68.10;;;;;;5113805;28;20028;-73
2022/02/28 09:29:44;;;;;;;16.35;10.77;;;14.60;65.40;;;;;;5112378;28;20026;-72
2022/02/28 09:32:09;;;;;;;14.63;10.10;;;14.60;64.00;;;;;;5113624;28;20393;-73
2022/02/28 09:34:36;;;;;;;17.88;10.13;;;14.30;60.80;;;;;;5095690;28;20396;-73
2022/02/28 09:37:01;;;;;;;14.27;8.95;;;14.40;61.70;;;;;;5101131;28;20124;-73
2022/02/28 09:39:27;;;;;;;12.23;9.38;;;14.20;59.20;;;;;;5095577;28;20118;-73
2022/02/28 09:41:54;;;;;;;14.07;9.88;;;14.20;60.00;;;;;;5104351;28;20028;-73
2022/02/28 09:44:21;;;;;;;14.43;10.07;;;14.20;58.60;;;;;;5100599;28;20536;-73
2022/02/28 09:46:47;;;;;;;14.75;9.60;;;14.00;56.90;;;;;;5113083;28;20382;-72
2022/02/28 09:49:14;;;;;;;12.70;9.18;;;13.70;59.40;;;;;;5113515;28;20023;-73
2022/02/28 09:51:40;;;;;;;12.90;9.02;;;14.10;59.20;;;;;;5096282;28;20062;-72
2022/02/28 09:54:07;;;;;;;14.85;9.13;;;14.40;58.00;;;;;;5113374;28;20023;-73
2022/02/28 09:56:33;;;;;;;13.40;9.18;;;13.50;57.60;;;;;;5113225;28;20035;-72
2022/02/28 09:59:00;;;;;;;14.57;9.32;;;13.80;59.70;;;;;;5102614;28;20043;-72
2022/02/28 10:01:26;;;;;;;14.35;9.18;;;13.60;59.10;;;;;;5079122;28;20470;-73
2022/02/28 10:03:51;;;;;;;13.20;8.40;;;13.80;57.90;;;;;;5109703;28;20023;-73
2022/02/28 10:06:17;;;;;;;12.77;9.07;;;14.60;57.00;;;;;;5113187;28;20027;-73
2022/02/28 10:08:46;;;;;;;12.15;8.60;;;14.80;56.50;;;;;;5113528;28;20034;-73
2022/02/28 10:11:31;;;;;;;10.38;7.60;;;14.90;55.00;;;;;;5112709;28;20020;-73
2022/02/28 10:14:00;;;;;;;12.10;8.60;;;14.60;55.30;;;;;;5108315;28;20411;-72
2022/02/28 10:16:41;;;;;;;10.20;8.15;;;14.90;55.20;;;;;;5107486;28;20623;-72
2022/02/28 10:19:10;;;;;;;13.57;8.95;;;14.70;53.30;;;;;;5117552;28;20027;-72
2022/02/28 10:21:39;;;;;;;12.88;8.77;;;14.80;52.70;;;;;;5117075;28;20027;-73
2022/02/28 10:24:07;;;;;;;11.40;7.93;;;14.10;53.50;;;;;;5117329;28;20481;-72
2022/02/28 10:26:38;;;;;;;10.85;8.13;;;14.20;54.10;;;;;;5106780;28;20023;-72
2022/02/28 10:29:07;;;;;;;14.18;9.15;;;14.20;54.60;;;;;;5110352;28;20027;-73
2022/02/28 10:31:35;;;;;;;11.80;8.60;;;14.30;55.00;;;;;;5099100;28;20035;-72
2022/02/28 10:34:12;;;;;;;14.05;9.27;;;13.70;54.70;;;;;;5099559;28;20092;-72
2022/02/28 10:36:37;;;;;;;10.95;8.70;;;13.10;56.80;;;;;;5117143;28;20515;-73
2022/02/28 10:39:07;;;;;;;12.52;8.63;;;13.70;56.20;;;;;;5115811;28;20039;-72
2022/02/28 10:41:36;;;;;;;15.10;8.90;;;13.30;56.70;;;;;;5101127;28;20095;-72
2022/02/28 10:44:04;;;;;;;12.07;8.55;;;13.40;57.10;;;;;;5089965;28;20085;-72
2022/02/28 10:46:33;;;;;;;10.98;8.48;;;13.50;57.80;;;;;;5084658;28;20071;-72
2022/02/28 10:49:04;;;;;;;16.55;10.52;;;13.50;56.10;;;;;;5097975;28;20023;-73
2022/02/28 10:51:41;;;;;;;13.63;8.77;;;13.30;56.70;;;;;;5116685;28;20390;-74
2022/02/28 10:54:09;;;;;;;12.60;9.02;;;13.30;56.10;;;;;;5117042;28;20027;-72
2022/02/28 10:57:11;;;;;;;13.32;8.20;;;13.40;57.10;;;;;;5098427;28;20032;-72
2022/02/28 10:59:44;;;;;;;11.63;8.25;;;14.40;56.10;;;;;;5098404;28;20101;-73
2022/02/28 11:02:27;;;;;;;11.35;9.13;;;14.10;55.80;;;;;;5116197;28;20046;-72
2022/02/28 11:05:15;;;;;;;14.10;8.63;;;14.10;56.00;;;;;;5116793;28;20047;-73
2022/02/28 11:07:42;;;;;;;12.38;8.05;;;15.10;55.30;;;;;;5115610;28;20105;-72
2022/02/28 11:10:10;;;;;;;11.35;8.00;;;15.10;53.30;;;;;;5115191;28;20030;-73
2022/02/28 11:12:35;;;;;;;12.15;8.27;;;15.30;51.60;;;;;;5107564;28;20023;-73
2022/02/28 11:15:13;;;;;;;11.57;8.43;;;15.60;53.10;;;;;;5098431;28;20027;-73
2022/02/28 11:17:40;;;;;;;15.52;9.30;;;15.80;52.10;;;;;;5116127;28;20062;-73
2022/02/28 11:20:10;;;;;;;10.57;8.82;;;15.10;51.20;;;;;;5116422;28;20096;-73
2022/02/28 11:22:37;;;;;;;12.98;8.45;;;14.50;52.30;;;;;;5098440;28;20028;-73
2022/02/28 11:25:05;;;;;;;13.43;9.05;;;14.20;54.20;;;;;;5083861;28;20074;-73
2022/02/28 11:27:31;;;;;;;16.65;9.13;;;14.50;54.30;;;;;;5097692;28;20024;-73
2022/02/28 11:29:59;;;;;;;13.27;8.52;;;14.90;55.30;;;;;;5081140;28;20024;-73
2022/02/28 11:32:27;;;;;;;14.35;9.00;;;15.10;54.10;;;;;;5097916;28;20110;-73
2022/02/28 11:34:55;;;;;;;12.57;9.23;;;14.60;55.10;;;;;;5097784;28;20028;-73
2022/02/28 11:37:24;;;;;;;12.52;9.05;;;14.10;55.30;;;;;;5098111;28;20027;-73
2022/02/28 11:39:52;;;;;;;13.45;9.02;;;13.80;57.70;;;;;;5097807;28;20026;-72
2022/02/28 11:42:57;;;;;;;13.77;8.73;;;13.20;56.40;;;;;;5116025;28;20435;-72
2022/02/28 11:45:23;;;;;;;12.68;9.43;;;12.50;57.80;;;;;;5115687;28;20031;-73
2022/02/28 11:48:09;;;;;;;14.40;9.50;;;12.70;60.20;;;;;;5103385;28;20015;-73
2022/02/28 11:50:52;;;;;;;12.93;8.95;;;12.20;58.70;;;;;;5080641;28;20084;-72
2022/02/28 11:53:41;;;;;;;11.88;9.00;;;11.90;59.20;;;;;;5097696;28;20023;-72
2022/02/28 11:59:19;;;;;;;18.52;9.82;;;11.60;65.40;;;;;;5070621;28;20750;-73
2022/02/28 12:01:54;;;;;;;15.48;8.52;;;12.00;65.80;;;;;;5069418;28;20025;-72
2022/02/28 12:04:28;;;;;;;12.45;8.50;;;11.80;61.90;;;;;;5069308;28;20078;-73
2022/02/28 12:06:56;;;;;;;11.77;8.50;;;11.60;62.20;;;;;;5069006;28;20074;-73
2022/02/28 12:09:43;;;;;;;14.30;8.30;;;11.50;63.30;;;;;;5070299;28;20529;-72
2022/02/28 12:12:31;;;;;;;13.57;7.88;;;11.70;63.30;;;;;;5068886;28;20086;-71
2022/02/28 12:17:40;;;;;;;17.33;8.60;;;11.80;63.00;;;;;;5110400;27;20333;-73
2022/02/28 12:20:28;;;;;;;15.18;8.98;;;11.60;64.90;;;;;;5110993;28;20020;-73
2022/02/28 12:25:38;;;;;;;13.32;7.97;;;11.90;62.90;;;;;;5110202;27;20718;-74
2022/02/28 12:28:25;;;;;;;14.73;8.43;;;11.90;62.20;;;;;;5105776;28;20024;-74
2022/02/28 12:31:12;;;;;;;13.45;8.25;;;12.10;61.40;;;;;;5089361;28;20050;-74
2022/02/28 12:36:20;;;;;;;12.60;8.48;;;11.90;62.60;;;;;;5110828;27;20312;-72
2022/02/28 12:38:49;;;;;;;11.45;7.75;;;11.80;60.30;;;;;;5110307;28;20424;-72
2022/02/28 12:41:17;;;;;;;14.50;8.18;;;11.60;61.50;;;;;;5110884;28;20093;-72